Time;durP1;ratioP1;P1;durP2;ratioP2;P2;SDS_P1;SDS_P2;PMS_P1;PMS_P2;Temp;Humidity;BMP_temperature;BMP_pressure;BME280_temperature;BME280_humidity;BME280_pressure;Samples;Min_cycle;Max_cycle;Signal;HPM_P1;HPM_P2
2021/03/19 00:00:37;;;;;;;15.17;11.97;;;-0.50;1.40;;;-0.12;100.00;95303.20;640128;221;32128;-76
2021/03/19 00:03:06;;;;;;;13.90;12.40;;;-0.50;1.40;;;-0.10;100.00;95304.66;641031;221;24683;-76
2021/03/19 00:05:35;;;;;;;15.17;12.50;;;-0.50;1.40;;;-0.15;100.00;95298.41;640545;221;24522;-75
2021/03/19 00:08:04;;;;;;;14.40;11.57;;;-0.50;1.40;;;-0.18;100.00;95297.28;639790;220;24539;-75
2021/03/19 00:10:33;;;;;;;17.87;12.40;;;-0.50;1.40;;;-0.14;100.00;95295.60;640203;221;24523;-76
2021/03/19 00:13:02;;;;;;;15.33;12.17;;;-0.50;1.40;;;-0.16;100.00;95294.23;639810;220;24510;-76
2021/03/19 00:15:31;;;;;;;14.50;12.10;;;-0.50;1.40;;;-0.11;100.00;95294.90;639350;220;24622;-76
2021/03/19 00:18:01;;;;;;;16.80;12.80;;;-0.50;1.40;;;-0.03;100.00;95289.98;639695;220;24520;-76
2021/03/19 00:20:31;;;;;;;22.20;16.92;;;-0.50;1.40;;;0.06;100.00;95291.68;635255;221;31804;-76
2021/03/19 00:23:00;;;;;;;17.20;14.70;;;-0.50;1.40;;;0.01;100.00;95290.17;639717;220;24823;-76
2021/03/19 00:25:29;;;;;;;16.33;13.10;;;-0.50;1.40;;;-0.04;100.00;95285.69;634733;221;24572;-76
2021/03/19 00:27:58;;;;;;;20.07;13.23;;;-0.50;1.40;;;-0.13;100.00;95282.34;642359;221;25593;-76
2021/03/19 00:30:27;;;;;;;19.23;16.20;;;-0.50;1.40;;;-0.11;100.00;95284.14;651054;215;31560;-76
2021/03/19 00:32:56;;;;;;;18.40;15.43;;;-0.50;1.40;;;-0.05;100.00;95282.48;654601;215;23458;-76
2021/03/19 00:35:57;;;;;;;22.73;17.55;;;-0.50;1.40;;;-0.01;100.00;95281.27;615617;225;32698;-74
2021/03/19 00:38:26;;;;;;;17.87;14.90;;;-0.50;1.40;;;-0.14;100.00;95283.78;617171;229;24629;-74
2021/03/19 00:40:55;;;;;;;15.03;13.30;;;-0.50;1.40;;;-0.10;100.00;95286.88;615926;229;24635;-74
2021/03/19 00:43:24;;;;;;;19.50;15.57;;;-0.50;1.40;;;-0.11;100.00;95278.97;616155;229;24623;-74
2021/03/19 00:45:53;;;;;;;20.00;16.83;;;-0.50;1.40;;;-0.12;100.00;95277.03;610249;229;42847;-74
2021/03/19 00:48:23;;;;;;;19.67;16.10;;;-0.50;1.40;;;-0.18;100.00;95275.55;614211;230;23606;-74
2021/03/19 00:50:52;;;;;;;20.30;17.75;;;-0.50;1.40;;;-0.10;100.00;95273.19;612230;230;32219;-74
2021/03/19 00:53:21;;;;;;;19.00;15.40;;;-0.50;1.40;;;-0.04;100.00;95275.20;615753;230;23501;-74
2021/03/19 00:58:30;;;;;;;21.45;17.20;;;-0.50;1.40;;;-0.01;100.00;95270.08;647378;216;42707;-76
2021/03/19 01:00:59;;;;;;;17.60;15.53;;;-0.50;1.40;;;-0.05;100.00;95270.38;641273;221;23477;-75
2021/03/19 01:03:28;;;;;;;23.73;15.43;;;-0.50;1.40;;;-0.12;100.00;95271.27;641838;221;24509;-76
2021/03/19 01:05:59;;;;;;;18.23;14.70;;;-0.50;1.40;;;-0.07;100.00;95265.87;640965;221;24513;-76
2021/03/19 01:08:27;;;;;;;20.50;15.83;;;-0.50;1.40;;;-0.02;100.00;95268.25;641222;220;24506;-76
2021/03/19 01:10:56;;;;;;;24.37;17.10;;;-0.50;1.40;;;-0.08;100.00;95260.58;640014;221;24499;-76
2021/03/19 01:13:25;;;;;;;17.13;14.17;;;-0.50;1.40;;;-0.15;100.00;95263.83;640273;220;24638;-76
2021/03/19 01:15:54;;;;;;;24.37;15.93;;;-0.50;1.40;;;-0.13;100.00;95263.70;669424;211;24993;-76
2021/03/19 01:18:23;;;;;;;20.75;17.48;;;-0.50;1.40;;;-0.16;100.00;95261.05;663692;211;32185;-76
2021/03/19 01:20:52;;;;;;;22.30;17.37;;;-0.50;1.40;;;-0.25;100.00;95256.55;667392;211;23471;-76
2021/03/19 01:23:21;;;;;;;23.27;18.37;;;-0.60;1.40;;;-0.33;100.00;95253.23;665448;211;31480;-75
2021/03/19 01:25:50;;;;;;;17.10;14.40;;;-0.70;1.40;;;-0.36;100.00;95258.13;669794;211;23419;-75
2021/03/19 01:28:19;;;;;;;21.07;14.97;;;-0.70;1.40;;;-0.44;100.00;95254.72;641568;220;24558;-76
2021/03/19 01:30:48;;;;;;;19.50;14.57;;;-0.80;1.40;;;-0.59;100.00;95249.54;641538;220;24523;-75
2021/03/19 01:35:51;;;;;;;19.95;16.10;;;-1.20;1.40;;;-0.97;100.00;95243.89;617594;225;32156;-76
2021/03/19 01:38:21;;;;;;;21.98;18.52;;;-1.40;1.40;;;-1.02;100.00;95244.77;611165;229;32319;-76
2021/03/19 01:40:50;;;;;;;23.67;18.77;;;-1.60;1.40;;;-1.11;100.00;95236.61;610641;229;32182;-76
2021/03/19 01:43:26;;;;;;;21.50;14.63;;;-1.70;1.40;;;-1.23;100.00;95236.40;616328;230;23521;-76
2021/03/19 01:46:18;;;;;;;18.27;16.33;;;-1.80;1.40;;;-1.36;100.00;95240.00;613796;230;24935;-77
2021/03/19 01:49:04;;;;;;;19.17;13.70;;;-1.90;1.40;;;-1.32;100.00;95230.39;616072;230;24619;-76
2021/03/19 01:51:51;;;;;;;16.83;13.80;;;-2.00;1.40;;;-1.44;100.00;95229.84;615066;230;24624;-76
2021/03/19 01:57:12;;;;;;;23.38;17.35;;;-2.10;1.40;;;-1.46;100.00;95226.88;644941;216;31640;-75
2021/03/19 01:59:58;;;;;;;19.47;16.30;;;-2.10;1.40;;;-1.57;100.00;95224.03;640780;220;23492;-76
2021/03/19 02:02:59;;;;;;;23.20;17.80;;;-2.20;1.40;;;-1.71;100.00;95213.55;635239;220;32269;-76
2021/03/19 02:05:55;;;;;;;24.27;17.80;;;-2.30;1.40;;;-1.80;100.00;95216.27;620404;226;31987;-76
2021/03/19 02:08:42;;;;;;;19.70;14.57;;;-2.40;1.40;;;-1.86;100.00;95210.01;616908;229;25632;-76
2021/03/19 02:14:08;;;;;;;24.75;19.27;;;-2.40;1.40;;;-1.68;100.00;95211.92;619514;222;42680;-75
2021/03/19 02:19:29;;;;;;;28.00;19.75;;;-2.40;1.40;;;-1.76;100.00;95206.42;647237;212;31840;-75
2021/03/19 02:22:15;;;;;;;20.30;15.70;;;-2.20;1.40;;;-1.84;100.00;95208.02;639822;220;23523;-76
2021/03/19 02:25:02;;;;;;;28.23;20.42;;;-2.30;1.40;;;-1.79;100.00;95205.68;634624;221;31825;-76
2021/03/19 02:27:49;;;;;;;27.70;21.10;;;-2.20;1.40;;;-1.71;100.00;95207.97;624948;225;31935;-75
2021/03/19 02:30:35;;;;;;;23.33;17.60;;;-2.10;1.40;;;-1.75;100.00;95209.21;628388;224;25630;-76
2021/03/19 02:35:53;;;;;;;29.48;19.52;;;-2.10;1.40;;;-1.82;100.00;95211.81;645489;216;42196;-76
2021/03/19 02:38:22;;;;;;;24.33;17.07;;;-2.10;1.40;;;-1.84;100.00;95208.88;641344;220;23457;-75
2021/03/19 02:40:52;;;;;;;25.45;19.37;;;-2.20;1.40;;;-1.89;100.00;95211.70;665633;211;31418;-75
2021/03/19 02:43:21;;;;;;;23.67;15.30;;;-2.30;1.40;;;-1.89;100.00;95209.30;669192;211;23421;-76
2021/03/19 02:45:50;;;;;;;21.70;14.30;;;-2.30;1.40;;;-1.97;100.00;95214.34;668653;211;24525;-75
2021/03/19 02:48:19;;;;;;;20.10;14.73;;;-2.40;1.40;;;-2.02;100.00;95222.31;668583;211;24448;-75
2021/03/19 02:50:48;;;;;;;24.00;18.60;;;-2.60;1.40;;;-2.17;100.00;95215.94;644494;218;31786;-75
2021/03/19 02:53:18;;;;;;;23.13;15.80;;;-2.80;1.40;;;-2.27;100.00;95215.89;640532;221;23463;-76
2021/03/19 02:55:47;;;;;;;23.40;17.55;;;-3.00;1.40;;;-2.38;100.00;95222.55;662669;211;31462;-75
2021/03/19 02:58:16;;;;;;;21.00;16.10;;;-3.20;1.40;;;-2.48;100.00;95222.13;669890;211;23408;-75
2021/03/19 03:00:45;;;;;;;23.77;18.70;;;-3.30;1.40;;;-2.49;100.00;95220.23;662649;211;31708;-75
2021/03/19 03:03:14;;;;;;;27.33;20.23;;;-3.40;1.40;;;-2.51;100.00;95216.77;662256;211;32198;-75
2021/03/19 03:05:43;;;;;;;22.70;16.20;;;-3.30;1.40;;;-2.36;100.00;95221.88;666536;211;23408;-75
2021/03/19 03:08:12;;;;;;;35.38;22.75;;;-3.00;1.40;;;-2.06;100.00;95214.11;648948;216;31628;-76
2021/03/19 03:10:41;;;;;;;36.42;25.00;;;-2.40;1.40;;;-1.86;100.00;95210.97;646841;215;31730;-75
2021/03/19 03:13:10;;;;;;;28.63;18.03;;;-2.20;1.40;;;-1.70;100.00;95215.58;669101;211;23511;-75
2021/03/19 03:15:40;;;;;;;31.73;17.83;;;-2.00;1.40;;;-1.71;100.00;95210.36;669256;211;24425;-76
2021/03/19 03:18:09;;;;;;;24.70;17.03;;;-1.90;1.40;;;-1.74;100.00;95211.16;668427;211;24450;-78
2021/03/19 03:20:39;;;;;;;24.73;19.02;;;-2.00;1.40;;;-1.75;100.00;95209.21;660551;211;31437;-75
2021/03/19 03:23:08;;;;;;;23.00;16.57;;;-1.90;1.40;;;-1.69;100.00;95207.20;652085;219;23915;-74
2021/03/19 03:25:37;;;;;;;19.23;14.40;;;-1.90;1.40;;;-1.64;100.00;95208.88;636230;220;24552;-74
2021/03/19 03:28:06;;;;;;;22.07;15.43;;;-1.80;1.40;;;-1.57;100.00;95214.30;656030;216;25675;-75
2021/03/19 03:30:39;;;;;;;20.60;14.63;;;-1.80;1.40;;;-1.55;100.00;95212.67;658423;215;24467;-75
2021/03/19 03:35:51;;;;;;;23.95;16.73;;;-1.70;1.40;;;-1.55;100.00;95201.99;647217;212;31626;-76
2021/03/19 03:38:20;;;;;;;18.90;15.27;;;-1.70;1.40;;;-1.50;100.00;95201.47;641009;221;23477;-76
2021/03/19 03:40:59;;;;;;;18.83;13.73;;;-1.60;1.40;;;-1.44;100.00;95200.38;640603;221;24548;-76
2021/03/19 03:43:28;;;;;;;20.57;14.00;;;-1.60;1.40;;;-1.34;100.00;95198.23;641422;221;29856;-76
2021/03/19 03:45:57;;;;;;;19.23;14.10;;;-1.60;1.40;;;-1.20;100.00;95194.38;641024;220;24528;-77
2021/03/19 03:48:26;;;;;;;25.92;18.25;;;-1.60;1.40;;;-1.15;100.00;95195.86;633730;221;31800;-76
2021/03/19 03:50:56;;;;;;;26.90;18.50;;;-1.50;1.40;;;-1.04;100.00;95192.47;634690;220;31739;-77
2021/03/19 03:53:25;;;;;;;26.10;17.43;;;-1.50;1.40;;;-1.04;100.00;95190.20;637898;221;23504;-76
2021/03/19 03:55:54;;;;;;;17.50;12.70;;;-1.40;1.40;;;-0.93;100.00;95189.11;640037;220;25062;-75
2021/03/19 03:58:23;;;;;;;19.87;15.27;;;-1.50;1.40;;;-1.00;100.00;95191.76;640047;221;24560;-76
2021/03/19 04:03:26;;;;;;;23.30;16.90;;;-1.40;1.40;;;-0.96;100.00;95196.14;646868;216;42238;-76
2021/03/19 04:05:55;;;;;;;21.90;15.23;;;-1.40;1.40;;;-1.03;100.00;95195.53;637149;221;25612;-76
2021/03/19 04:08:25;;;;;;;18.40;14.50;;;-1.40;1.40;;;-1.07;100.00;95193.81;642017;220;24518;-76
2021/03/19 04:10:54;;;;;;;19.30;13.47;;;-1.40;1.40;;;-0.99;100.00;95193.53;638468;221;30934;-76
2021/03/19 04:13:24;;;;;;;16.93;12.47;;;-1.40;1.40;;;-0.90;100.00;95193.94;639472;221;24550;-76
2021/03/19 04:15:52;;;;;;;17.97;14.17;;;-1.40;1.40;;;-0.89;100.00;95190.38;640861;220;26693;-76
2021/03/19 04:18:21;;;;;;;16.87;12.40;;;-1.40;1.40;;;-0.85;100.00;95194.50;640115;221;24599;-76
2021/03/19 04:20:50;;;;;;;20.30;13.90;;;-1.40;1.40;;;-0.89;100.00;95197.52;639978;221;24741;-76
2021/03/19 04:23:24;;;;;;;20.10;15.23;;;-1.40;1.40;;;-1.00;100.00;95194.67;637546;220;31823;-76
2021/03/19 04:25:53;;;;;;;22.50;16.05;;;-1.40;1.40;;;-1.03;100.00;95193.82;627685;221;32156;-76
2021/03/19 04:28:22;;;;;;;20.98;16.70;;;-1.40;1.40;;;-1.04;100.00;95196.80;637208;220;31708;-76
2021/03/19 04:36:03;;;;;;;21.52;16.92;;;-1.40;1.40;;;-0.98;100.00;95206.48;619726;222;31979;-75
2021/03/19 04:38:31;;;;;;;18.77;13.43;;;-1.40;1.40;;;-0.97;100.00;95207.34;640946;220;23462;-77
2021/03/19 04:41:01;;;;;;;14.83;11.80;;;-1.40;1.40;;;-1.01;100.00;95207.81;641169;220;25668;-76
2021/03/19 04:46:04;;;;;;;19.60;15.13;;;-1.30;1.40;;;-0.84;100.00;95203.45;646254;216;42257;-76
2021/03/19 04:48:33;;;;;;;16.40;12.00;;;-1.30;1.40;;;-0.78;100.00;95205.91;638157;221;23785;-76
2021/03/19 04:51:02;;;;;;;15.00;11.30;;;-1.30;1.40;;;-0.75;100.00;95206.59;641471;221;24590;-75
2021/03/19 04:53:31;;;;;;;17.83;13.13;;;-1.30;1.40;;;-0.63;100.00;95207.30;639854;221;24534;-76
2021/03/19 04:56:00;;;;;;;15.37;11.60;;;-1.30;1.40;;;-0.75;100.00;95210.21;641405;221;25633;-76
2021/03/19 04:58:29;;;;;;;14.67;11.10;;;-1.30;1.40;;;-0.84;100.00;95217.55;639089;220;24511;-76
2021/03/19 05:00:59;;;;;;;15.27;12.33;;;-1.40;1.40;;;-0.88;100.00;95212.80;640907;221;25588;-76
2021/03/19 05:03:28;;;;;;;17.37;12.90;;;-1.30;1.40;;;-0.90;100.00;95213.57;641106;221;24508;-74
2021/03/19 05:05:57;;;;;;;18.83;12.10;;;-1.40;1.40;;;-0.92;100.00;95213.47;641307;221;30961;-74
2021/03/19 05:08:26;;;;;;;14.87;11.30;;;-1.40;1.40;;;-0.93;100.00;95212.73;641500;221;24592;-75
2021/03/19 05:10:55;;;;;;;15.77;10.67;;;-1.40;1.40;;;-0.93;100.00;95214.81;640896;220;24602;-74
2021/03/19 05:13:24;;;;;;;17.27;13.90;;;-1.40;1.40;;;-0.78;100.00;95218.72;635695;221;31794;-75
2021/03/19 05:15:53;;;;;;;17.50;13.77;;;-1.40;1.40;;;-0.82;100.00;95216.90;638590;220;24670;-75
2021/03/19 05:18:22;;;;;;;16.98;12.93;;;-1.40;1.40;;;-0.87;100.00;95221.45;634542;220;31861;-74
2021/03/19 05:20:51;;;;;;;19.57;13.07;;;-1.40;1.40;;;-0.79;100.00;95220.10;638994;220;24678;-75
2021/03/19 05:23:22;;;;;;;15.87;12.00;;;-1.30;1.40;;;-0.86;100.00;95218.97;640253;221;24551;-74
2021/03/19 05:25:51;;;;;;;16.53;11.57;;;-1.40;1.40;;;-0.83;100.00;95224.91;641908;220;24523;-75
2021/03/19 05:28:20;;;;;;;13.13;10.77;;;-1.40;1.40;;;-0.75;100.00;95224.48;657435;216;24524;-75
2021/03/19 05:30:53;;;;;;;18.53;12.40;;;-1.40;1.40;;;-0.93;100.00;95226.92;655657;216;25804;-77
2021/03/19 05:35:51;;;;;;;15.32;12.75;;;-1.50;1.40;;;-1.09;100.00;95228.30;617537;226;32477;-77
2021/03/19 05:38:20;;;;;;;14.33;11.50;;;-1.40;1.40;;;-1.14;100.00;95228.59;642255;220;27758;-75
2021/03/19 05:40:51;;;;;;;12.87;10.20;;;-1.50;1.40;;;-1.12;100.00;95231.94;641506;220;26912;-76
2021/03/19 05:43:25;;;;;;;13.73;12.27;;;-1.50;1.40;;;-1.13;100.00;95232.72;641241;220;24507;-76
2021/03/19 05:46:06;;;;;;;14.73;9.97;;;-1.50;1.40;;;-1.01;100.00;95230.52;642042;220;24636;-76
2021/03/19 05:48:40;;;;;;;14.50;10.70;;;-1.50;1.40;;;-0.89;100.00;95240.92;640746;220;24539;-76
2021/03/19 05:51:20;;;;;;;15.20;11.77;;;-1.40;1.40;;;-0.86;100.00;95238.48;640982;220;24510;-76
2021/03/19 05:53:58;;;;;;;16.33;11.07;;;-1.40;1.40;;;-0.86;100.00;95240.78;642112;220;24562;-76
2021/03/19 05:56:27;;;;;;;15.10;10.70;;;-1.30;1.40;;;-0.93;100.00;95245.17;641013;220;24583;-76
2021/03/19 05:58:56;;;;;;;14.57;11.77;;;-1.30;1.40;;;-0.88;100.00;95246.06;634050;220;31957;-76
2021/03/19 06:01:25;;;;;;;14.30;11.20;;;-1.30;1.40;;;-0.69;100.00;95252.06;639256;220;25692;-76
2021/03/19 06:04:01;;;;;;;16.00;11.03;;;-1.20;1.40;;;-0.54;100.00;95250.34;642704;221;24815;-78
2021/03/19 06:07:00;;;;;;;19.87;12.33;;;-1.10;1.40;;;-0.68;100.00;95248.10;641246;220;24538;-76
2021/03/19 06:09:38;;;;;;;16.37;12.52;;;-1.20;1.40;;;-0.61;100.00;95252.17;647065;216;31748;-76
2021/03/19 06:12:16;;;;;;;14.83;11.17;;;-1.10;1.40;;;-0.57;100.00;95251.75;641394;221;23472;-77
2021/03/19 06:14:47;;;;;;;13.10;10.90;;;-1.10;1.40;;;-0.60;100.00;95247.28;640887;221;24666;-77
2021/03/19 06:17:30;;;;;;;12.67;11.37;;;-1.10;1.40;;;-0.42;100.00;95252.35;639557;220;24530;-77
2021/03/19 06:20:17;;;;;;;16.27;10.40;;;-1.00;1.40;;;-0.32;100.00;95259.64;641518;220;24507;-76
2021/03/19 06:22:48;;;;;;;15.10;11.00;;;-1.00;1.40;;;-0.45;100.00;95252.73;639810;221;24564;-76
2021/03/19 06:25:38;;;;;;;14.30;10.40;;;-1.00;1.40;;;-0.49;100.00;95255.85;636634;221;24556;-77
2021/03/19 06:28:29;;;;;;;14.83;10.53;;;-1.00;1.40;;;-0.24;100.00;95257.84;641891;220;24560;-76
2021/03/19 06:31:23;;;;;;;16.10;11.90;;;-0.80;1.40;;;-0.20;100.00;95256.64;646140;216;32207;-76
2021/03/19 06:36:09;;;;;;;14.73;11.75;;;-0.80;1.40;;;-0.16;100.00;95262.32;648853;216;31662;-77
2021/03/19 06:38:39;;;;;;;14.67;10.20;;;-0.90;1.40;;;-0.45;100.00;95267.53;655562;215;23447;-78
2021/03/19 06:41:35;;;;;;;12.70;10.82;;;-1.00;1.40;;;-0.48;100.00;95264.72;664227;211;31457;-78
2021/03/19 06:44:23;;;;;;;15.30;12.55;;;-1.00;1.40;;;-0.38;100.00;95263.30;666555;211;31480;-76
2021/03/19 06:46:55;;;;;;;15.63;10.00;;;-0.90;1.40;;;-0.27;100.00;95264.19;669378;211;23447;-75
2021/03/19 06:49:24;;;;;;;15.20;11.57;;;-0.80;1.40;;;-0.32;100.00;95266.77;648918;216;31870;-76
2021/03/19 06:51:54;;;;;;;13.43;10.63;;;-0.80;1.40;;;-0.32;100.00;95266.46;670867;211;23411;-75
2021/03/19 06:54:24;;;;;;;13.80;12.23;;;-0.80;1.40;;;-0.25;100.00;95269.17;649723;216;39655;-75
2021/03/19 06:57:13;;;;;;;13.73;10.23;;;-0.70;1.40;;;-0.21;100.00;95267.27;668917;211;24438;-75
2021/03/19 06:59:44;;;;;;;11.87;9.30;;;-0.70;1.40;;;-0.02;100.00;95265.16;669780;211;24558;-75
2021/03/19 07:02:39;;;;;;;11.33;10.07;;;-0.60;1.40;;;0.05;100.00;95268.16;668879;211;24468;-75
2021/03/19 07:05:56;;;;;;;14.95;10.95;;;-0.50;1.40;;;0.01;100.00;95266.29;619713;226;32140;-77
2021/03/19 07:08:40;;;;;;;13.40;11.60;;;-0.50;1.40;;;0.22;100.00;95268.30;645639;212;31728;-76
2021/03/19 07:11:32;;;;;;;11.97;10.10;;;-0.40;1.40;;;0.29;100.00;95267.37;641354;220;24613;-75
2021/03/19 07:14:07;;;;;;;15.13;11.40;;;-0.30;1.40;;;0.89;100.00;95270.72;635401;221;31804;-76
2021/03/19 07:17:12;;;;;;;11.13;9.93;;;0.10;1.40;;;1.16;100.00;95267.83;640853;220;23471;-76
2021/03/19 07:20:12;;;;;;;14.73;11.65;;;0.40;1.40;;;1.50;99.32;95273.59;646453;213;32430;-77
2021/03/19 07:23:14;;;;;;;12.73;10.95;;;0.60;1.40;;;1.75;98.60;95276.74;632860;218;31782;-76
2021/03/19 07:26:12;;;;;;;13.73;11.32;;;0.80;1.40;;;1.18;94.83;95273.89;640215;212;36700;-76
2021/03/19 07:28:56;;;;;;;10.93;9.83;;;0.40;1.40;;;1.44;96.97;95282.74;643092;220;23468;-76
2021/03/19 07:31:44;;;;;;;14.70;10.20;;;0.60;1.40;;;1.69;94.54;95286.84;630923;224;24573;-77
2021/03/19 07:36:12;;;;;;;12.00;10.48;;;1.00;1.40;;;2.21;93.54;95289.69;618822;222;31980;-76
2021/03/19 07:39:07;;;;;;;11.93;10.68;;;1.10;1.40;;;2.30;92.34;95288.18;646400;216;31691;-76
2021/03/19 07:41:41;;;;;;;9.40;8.40;;;1.30;1.40;;;2.22;90.30;95291.36;639320;221;25949;-76
2021/03/19 07:44:27;;;;;;;9.73;7.90;;;1.20;1.40;;;2.30;89.55;95293.69;639767;220;24515;-77
2021/03/19 07:47:24;;;;;;;11.45;9.77;;;1.20;1.40;;;2.03;88.27;95294.02;634600;220;31747;-76
2021/03/19 07:50:08;;;;;;;11.80;10.60;;;1.10;1.40;;;2.03;88.93;95293.73;645806;212;31600;-77
2021/03/19 07:53:15;;;;;;;11.07;9.97;;;1.10;1.40;;;2.31;90.70;95293.44;641858;221;23504;-76
2021/03/19 07:55:59;;;;;;;11.70;10.30;;;1.50;1.40;;;2.56;88.17;95290.80;646861;216;42309;-77
2021/03/19 07:58:38;;;;;;;11.87;9.40;;;1.40;1.40;;;1.99;88.06;95291.73;641803;220;23489;-77
2021/03/19 08:01:19;;;;;;;11.40;9.50;;;0.90;1.40;;;1.60;90.24;95294.09;668539;211;25557;-77
2021/03/19 08:03:48;;;;;;;11.30;9.83;;;0.70;1.40;;;1.43;92.23;95292.66;664657;211;28685;-77
2021/03/19 08:06:17;;;;;;;11.07;9.87;;;0.60;1.40;;;1.44;91.83;95297.33;655199;216;24455;-78
2021/03/19 08:08:52;;;;;;;10.63;9.60;;;0.60;1.40;;;1.10;94.39;95296.72;667347;211;25538;-77
2021/03/19 08:11:35;;;;;;;11.53;9.47;;;0.30;1.40;;;1.49;95.73;95293.88;669661;211;24418;-77
2021/03/19 08:14:29;;;;;;;9.73;8.83;;;0.70;1.40;;;2.29;94.37;95294.11;669080;211;24450;-75
2021/03/19 08:17:01;;;;;;;10.87;9.40;;;1.30;1.40;;;2.47;90.08;95298.49;655166;216;24449;-76
2021/03/19 08:19:34;;;;;;;11.93;9.87;;;1.50;1.40;;;2.25;91.34;95300.08;668351;211;24438;-75
2021/03/19 08:22:24;;;;;;;11.63;10.43;;;1.20;1.40;;;2.87;90.51;95294.23;670289;211;24442;-76
2021/03/19 08:25:22;;;;;;;14.35;11.82;;;1.70;1.40;;;2.66;90.13;95302.28;644292;216;31773;-77
2021/03/19 08:27:59;;;;;;;11.50;10.07;;;1.50;1.40;;;3.43;88.67;95299.75;643408;219;23484;-77
2021/03/19 08:30:39;;;;;;;11.90;10.57;;;2.10;1.40;;;3.72;89.52;95302.29;637587;223;24533;-77
2021/03/19 08:36:02;;;;;;;15.75;12.18;;;2.00;1.40;;;3.21;88.79;95307.25;618585;225;32189;-77
2021/03/19 08:38:32;;;;;;;14.70;12.30;;;1.80;1.40;;;3.33;86.93;95310.61;613959;230;23545;-77
2021/03/19 08:41:01;;;;;;;14.80;11.10;;;1.90;1.40;;;3.34;87.82;95317.85;626919;225;24566;-77
2021/03/19 08:43:32;;;;;;;15.00;10.73;;;1.80;1.40;;;3.14;87.89;95319.13;641700;220;24499;-77
2021/03/19 08:46:02;;;;;;;14.23;12.30;;;1.70;1.40;;;2.69;89.51;95327.19;641670;221;24517;-78
2021/03/19 08:48:31;;;;;;;13.90;11.93;;;1.50;1.40;;;2.25;92.16;95326.39;641809;221;24544;-77
2021/03/19 08:51:12;;;;;;;15.33;11.20;;;1.10;1.40;;;1.74;95.56;95328.09;639968;221;24543;-77
2021/03/19 08:53:58;;;;;;;12.27;9.20;;;0.80;1.40;;;1.57;98.68;95330.61;641879;221;24565;-78
2021/03/19 08:56:28;;;;;;;13.47;10.77;;;0.70;1.40;;;1.60;99.66;95330.42;640588;220;24537;-77
2021/03/19 08:58:57;;;;;;;16.50;13.48;;;0.70;1.40;;;2.13;96.77;95333.69;635235;220;31979;-77
2021/03/19 09:01:48;;;;;;;15.07;13.10;;;1.10;1.40;;;2.16;95.42;95334.68;627724;225;23538;-77
2021/03/19 09:04:44;;;;;;;15.30;12.65;;;1.00;1.40;;;2.45;94.92;95334.86;619683;226;32105;-77
2021/03/19 09:07:37;;;;;;;16.03;12.40;;;1.30;1.40;;;2.54;94.61;95338.08;615951;229;25662;-78
2021/03/19 09:10:40;;;;;;;14.13;11.63;;;1.50;1.40;;;2.29;93.78;95335.52;615815;229;24851;-77
2021/03/19 09:13:22;;;;;;;16.55;14.18;;;1.00;1.40;;;2.59;94.73;95333.25;620019;226;32003;-77
2021/03/19 09:15:51;;;;;;;13.70;12.03;;;1.30;1.40;;;2.27;94.07;95338.59;617099;230;23541;-77
2021/03/19 09:18:50;;;;;;;15.02;13.35;;;1.10;1.40;;;2.30;95.62;95340.23;609904;229;32360;-77
2021/03/19 09:21:36;;;;;;;14.47;10.67;;;1.10;1.40;;;2.58;96.27;95344.16;613061;230;24962;-77
2021/03/19 09:24:23;;;;;;;12.73;10.90;;;1.30;1.40;;;2.88;94.19;95347.84;616450;229;25044;-78
2021/03/19 09:26:52;;;;;;;13.00;10.03;;;1.50;1.40;;;2.59;93.41;95346.68;605058;229;25761;-78
2021/03/19 09:29:24;;;;;;;13.33;10.30;;;1.30;1.40;;;2.22;94.59;95344.78;618165;229;27043;-77
2021/03/19 09:31:57;;;;;;;10.40;9.40;;;1.00;1.40;;;1.95;96.58;95345.27;617853;229;24595;-77
2021/03/19 09:35:51;;;;;;;12.85;11.20;;;0.50;1.40;;;1.37;100.00;95348.36;648399;216;32206;-76
2021/03/19 09:40:57;;;;;;;15.75;14.15;;;0.40;1.40;;;1.63;100.00;95345.52;647077;216;31647;-77
2021/03/19 09:43:36;;;;;;;14.80;12.17;;;0.70;1.40;;;1.48;100.00;95341.44;642697;220;24874;-78
2021/03/19 09:46:23;;;;;;;13.20;11.77;;;0.60;1.40;;;1.42;100.00;95341.91;654350;218;25112;-78
2021/03/19 09:49:04;;;;;;;14.90;12.75;;;0.70;1.40;;;1.70;100.00;95343.17;621001;225;32248;-78
2021/03/19 09:51:40;;;;;;;15.98;14.27;;;0.80;1.40;;;2.01;100.00;95347.34;637166;220;32346;-78
2021/03/19 09:56:44;;;;;;;15.45;13.20;;;1.20;1.40;;;2.56;100.00;95346.50;646516;216;31638;-78
2021/03/19 09:59:25;;;;;;;14.13;11.50;;;1.60;1.40;;;3.27;98.97;95346.86;640846;221;25625;-78
2021/03/19 10:01:54;;;;;;;13.30;10.60;;;2.30;1.40;;;2.90;96.88;95348.86;640644;220;24499;-78
2021/03/19 10:04:35;;;;;;;;;;;1.80;1.40;;;3.52;96.23;95342.12;638633;221;25864;-78
2021/03/19 10:07:18;;;;;;;;;;;2.50;1.40;;;4.19;95.03;95342.11;639954;220;24909;-78
2021/03/19 10:10:02;;;;;;;;;;;3.20;1.40;;;4.47;88.33;95344.48;651284;216;24855;-75
2021/03/19 10:12:31;;;;;;;;;;;3.10;1.40;;;5.16;88.63;95348.12;641737;220;24930;-76
2021/03/19 10:15:10;;;;;;;;;;;3.50;1.40;;;4.80;89.12;95343.79;641458;221;24963;-76
2021/03/19 10:17:39;;;;;;;;;;;3.40;1.40;;;5.30;87.51;95345.75;642993;221;25419;-76
2021/03/19 10:20:33;;;;;;;;;;;3.90;1.40;;;5.05;85.50;95340.62;641221;220;24967;-76
2021/03/19 10:23:21;;;;;;;;;;;3.60;1.40;;;5.95;83.74;95339.95;643406;220;24998;-76
2021/03/19 10:26:04;;;;;;;;;;;4.30;1.40;;;6.57;78.83;95345.73;644840;212;24897;-79
2021/03/19 10:28:33;;;;;;;;;;;5.00;1.40;;;7.33;79.89;95343.41;631868;224;24959;-79
2021/03/19 10:31:16;;;;;;;;;;;4.50;1.40;;;5.47;79.07;95337.55;630395;224;25481;-77
2021/03/19 10:35:56;;;;;;;12.50;11.20;;;2.90;1.40;;;5.86;83.12;95336.23;620796;225;32007;-79
2021/03/19 10:38:33;;;;;;;11.60;10.50;;;3.70;1.40;;;6.92;77.71;95341.93;617609;229;23520;-77
2021/03/19 10:41:02;;;;;;;12.40;11.07;;;4.30;1.40;;;8.19;75.89;95334.28;616917;229;26744;-80
2021/03/19 10:48:59;;;;;;;13.10;11.90;;;7.30;1.40;;;11.29;65.80;95333.20;647774;212;42236;-77
2021/03/19 10:51:53;;;;;;;13.07;11.83;;;6.90;1.40;;;10.25;60.23;95334.58;643716;219;23483;-77
2021/03/19 10:57:13;;;;;;;13.85;12.55;;;5.70;1.40;;;9.72;70.73;95339.51;645658;216;42274;-76
2021/03/19 10:59:42;;;;;;;12.10;11.00;;;5.30;1.40;;;8.56;66.33;95342.30;641175;220;23479;-76
2021/03/19 11:02:28;;;;;;;14.68;13.20;;;4.10;1.40;;;7.73;72.86;95351.13;663855;211;31801;-76
2021/03/19 11:05:07;;;;;;;16.40;14.80;;;3.30;1.40;;;7.79;73.13;95346.04;649792;216;31583;-76
2021/03/19 11:07:36;;;;;;;14.37;12.93;;;3.70;1.40;;;7.97;72.43;95340.16;671026;211;23386;-75
2021/03/19 11:12:41;;;;;;;14.38;13.02;;;9.30;1.40;;;11.18;61.26;95341.65;618320;222;32078;-75
2021/03/19 11:15:39;;;;;;;13.47;11.87;;;9.40;1.40;;;12.52;59.45;95333.21;638738;220;23492;-76
2021/03/19 11:18:22;;;;;;;13.53;12.23;;;10.20;1.40;;;11.92;60.38;95334.31;646326;212;31653;-76
2021/03/19 11:20:50;;;;;;;13.10;11.83;;;9.20;1.40;;;12.42;54.81;95330.04;640984;219;24553;-75
2021/03/19 11:23:38;;;;;;;13.87;12.43;;;8.30;1.40;;;9.71;63.20;95333.09;670210;211;24416;-75
2021/03/19 11:26:27;;;;;;;13.50;12.20;;;6.40;1.40;;;9.55;63.16;95336.56;657629;211;24469;-75
2021/03/19 11:29:29;;;;;;;13.67;12.37;;;5.60;1.40;;;7.56;69.05;95341.38;656763;215;24474;-76
2021/03/19 11:32:31;;;;;;;12.13;10.50;;;4.20;1.40;;;6.75;70.12;95336.30;656119;215;29144;-76
2021/03/19 11:36:05;;;;;;;15.20;13.70;;;3.20;1.40;;;5.63;77.91;95335.08;644515;216;31656;-79
2021/03/19 11:38:36;;;;;;;16.13;14.50;;;2.90;1.40;;;5.44;78.08;95338.14;644321;220;23465;-78
2021/03/19 11:46:30;;;;;;;18.50;16.70;;;2.90;1.40;;;4.45;81.23;95333.40;647985;212;31675;-81
2021/03/19 11:48:59;;;;;;;15.27;13.70;;;2.70;1.40;;;4.18;83.26;95329.88;642462;220;23494;-80
2021/03/19 11:51:30;;;;;;;16.03;14.40;;;2.50;1.40;;;3.85;85.11;95331.38;640488;220;24526;-80
2021/03/19 11:53:58;;;;;;;15.43;13.60;;;2.30;1.40;;;3.80;87.09;95325.20;642356;221;24540;-80
2021/03/19 11:56:29;;;;;;;18.27;13.80;;;2.30;1.40;;;3.86;86.51;95323.55;640462;220;24530;-79
2021/03/19 11:58:57;;;;;;;14.87;13.27;;;2.40;1.40;;;4.26;86.00;95323.01;640705;220;24515;-79